Main page
METAR-TAF:

METAR-TAF

Airports :

Baia Mare, Romania

Baia Mare Airport

latitude: 47-40N, longitude: 023-35E, elevation: 218 m

Current weather observation

The report was made 15 minutes ago, at 20:30 UTC
Temperature
Pressure 1013 hPa

METAR: LRBM 232030Z AUTO /////KT //// ///// Q1013

Time: 23:45 (20:45 UTC)

Forecast

The report was made 6 hours and 45 minutes ago, at 14:00 UTC
Forecast valid from 23 at 15 UTC to 23 at 24 UTC
Wind 4 kt from variable directions
Visibility 10 km or more
no clouds below 1500 m and no cumulonimbus
Probability 30% :
Temporary
from 23 at 15 UTC to 23 at 18 UTC
Wind 20 kt from variable directions with gusts up to 30 kt
Visibility: 5000 m
Scattered clouds at a height of 3000 ft, Cumulonimbus.
thunderstorm, rain

TAF: LRBM 231400Z 2315/2324 VRB04KT CAVOK PROB30 TEMPO 2315/2318 VRB20G30KT 5000 TSRA SCT030CB

Weather observations and forecasts of more than 4000 airports (METAR and TAF reports).

The available stations are represented by yellow and red dots on the map.

Hover mouse over dot to see the name of the station.

Then click to see weather observations and forecasts.

To change the map : click on the green buttons with a black cross to zoom in, on the green button with a dash to zoom out, or on the green arrows for adjacent maps.


METAR-TAF: